New York, NY (10027)

4:28 AM EST on February 22, 2017 (GMT -0500)
Marcus Garvey Park | | Change Station

Elev 36 ft 40.80 °N, 73.94 °W | Updated 9 seconds ago

Mostly Cloudy
Mostly Cloudy
43.2 °F
Feels Like 43 °F
N
0.0
Wind Variable Wind from SSW
Gusts 0.0 mph

Today
High -- | Low -- °F
--% Chance of Precip.
Yesterday
High -- | Low -- °F
Precip. -- in
Pressure 30.07 in
Visibility 10.0 miles
Clouds Mostly Cloudy 10000 ft
Overcast 11000 ft
Windchill 43 °F
Dew Point 28 °F
Humidity 55%
Rainfall 0.00 in
Snow Depth Not available.
6:39 AM 5:39 PM
Waning Crescent, 18% visible
METAR KNYC 220851Z AUTO VRB04KT 10SM BKN100 OVC110 06/01 A3009 RMK AO2 SLP182 T00610011 55007 $
Pressure 30.07 in
Visibility 10.0 miles
Clouds Mostly Cloudy 10000 ft
Overcast 11000 ft
Windchill 43 °F
Dew Point 28 °F
Humidity 55%
Rainfall 0.00 in
Snow Depth Not available.
6:39 AM 5:39 PM
Waning Crescent, 18% visible
METAR KNYC 220851Z AUTO VRB04KT 10SM BKN100 OVC110 06/01 A3009 RMK AO2 SLP182 T00610011 55007 $

Get Your Daily Forecast Email!

Thanks for signing up!

Be on the lookout for a verification email in your inbox.

You'll start receiving the daily forecast at 8 AM.

×

10-Day Weather Forecast

Almanac

Astronomy

Feb. 22, 2017 Rise Set
Actual Time
Civil Twilight
Nautical Twilight
Astronomical Twilight
Moon
Length of Visible Light
Length of Day
Tomorrow will be .
, % of the Moon is Illuminated

Today's Extremes

State Highs State Lows

Community

WunderPhotos

Upload Photos

1,962,540 photos uploaded!

WunderBlog® & News

Nearby

Air Quality

  Air Quality AQ Index Pollutant
Not available.

Snow Depth

Station Depth Elevation

Earthquake Activity

City Distance Mag. Time & Date
Minimum magnitude displayed is 2.5.

Coastal Water Temperatures

Place Temperature

Stations

Nearby Weather Stations

Station Location Temp. Windchill Dew Point Humidity Wind Precip. Elev Updated Type
                   

Watches & Warnings

There are currently no watches in effect.